createdAt,value
2022-08-22T00:02:18.252Z,0.88
2022-08-22T00:02:59.714Z,0.63
2022-08-22T00:03:04.030Z,0.57
2022-08-22T00:03:04.654Z,1.13
2022-08-22T00:05:03.525Z,0.93
2022-08-22T00:07:42.338Z,1.05
2022-08-22T00:10:25.035Z,1.08
2022-08-22T00:13:03.855Z,1.08
2022-08-22T00:15:43.134Z,1.02
2022-08-22T00:18:16.196Z,1.10
2022-08-22T00:20:49.917Z,1.02
2022-08-22T00:23:28.713Z,1.23
2022-08-22T00:26:03.048Z,1.27
2022-08-22T00:28:44.844Z,1.30
2022-08-22T00:31:33.425Z,0.90
2022-08-22T00:34:26.371Z,0.93
2022-08-22T00:37:19.205Z,1.40
2022-08-22T00:40:04.730Z,1.15
2022-08-22T00:42:50.278Z,1.05
2022-08-22T00:45:16.755Z,1.10
2022-08-22T00:47:58.020Z,1.95
2022-08-22T00:53:03.170Z,1.00
2022-08-22T00:56:06.982Z,1.30
2022-08-22T00:58:33.474Z,1.63
2022-08-22T01:01:06.837Z,1.70
2022-08-22T01:03:48.631Z,1.75
2022-08-22T01:06:33.942Z,1.10
2022-08-22T01:09:18.681Z,1.40
2022-08-22T01:12:07.074Z,1.58
2022-08-22T01:14:51.832Z,1.33
2022-08-22T01:17:39.252Z,1.25
2022-08-22T01:20:33.606Z,1.15
2022-08-22T01:23:12.202Z,1.02
2022-08-22T01:25:57.554Z,1.10
2022-08-22T01:28:54.673Z,1.10
2022-08-22T01:31:44.395Z,1.13
2022-08-22T01:34:53.662Z,1.35
2022-08-22T01:37:29.117Z,1.00
2022-08-22T01:40:14.553Z,1.10
2022-08-22T01:42:53.316Z,1.10
2022-08-22T01:45:57.602Z,1.35
2022-08-22T01:48:27.290Z,1.88
2022-08-22T01:51:22.074Z,1.38
2022-08-22T01:54:11.454Z,1.50
2022-08-22T01:56:44.463Z,1.20
2022-08-22T01:59:42.134Z,1.40
2022-08-22T02:02:28.319Z,1.35
2022-08-22T02:05:01.573Z,1.17
2022-08-22T02:07:52.673Z,1.40
2022-08-22T02:11:06.098Z,1.83
2022-08-22T02:13:49.200Z,1.17
2022-08-22T02:16:31.061Z,1.60
2022-08-22T02:19:15.926Z,1.75
2022-08-22T02:21:50.490Z,1.23
2022-08-22T02:24:19.548Z,1.23
2022-08-22T02:27:04.240Z,1.35
2022-08-22T02:29:41.915Z,1.45
2022-08-22T02:32:40.786Z,1.42
2022-08-22T02:35:14.343Z,1.50
2022-08-22T02:37:57.421Z,1.33
2022-08-22T02:40:42.014Z,1.65
2022-08-22T02:43:29.679Z,1.40
2022-08-22T02:46:18.878Z,1.60
2022-08-22T02:48:56.067Z,1.55
2022-08-22T02:51:45.791Z,1.55
2022-08-22T02:54:30.691Z,1.42
2022-08-22T02:57:03.283Z,1.10
2022-08-22T02:59:34.514Z,1.20
2022-08-22T03:02:39.279Z,1.80
2022-08-22T03:05:17.923Z,1.40
2022-08-22T03:07:53.305Z,1.23
2022-08-22T03:10:24.023Z,1.63
2022-08-22T03:12:57.427Z,1.35
2022-08-22T03:15:24.497Z,1.70
2022-08-22T03:18:06.162Z,1.85
2022-08-22T03:20:38.201Z,1.60
2022-08-22T03:23:10.426Z,1.60
2022-08-22T03:25:49.037Z,1.42
2022-08-22T03:28:58.997Z,1.73
2022-08-22T03:31:28.283Z,1.65
2022-08-22T03:34:16.634Z,1.95
2022-08-22T03:37:02.153Z,1.52
2022-08-22T03:39:49.951Z,1.17
2022-08-22T03:42:17.907Z,1.40
2022-08-22T03:45:03.268Z,2.00
2022-08-22T03:48:16.433Z,1.77
2022-08-22T03:51:12.342Z,2.15
2022-08-22T03:54:04.335Z,1.67
2022-08-22T03:57:08.797Z,1.60
2022-08-22T03:59:44.587Z,1.55
2022-08-22T04:02:42.528Z,1.70
2022-08-22T04:05:10.353Z,1.45
2022-08-22T04:07:58.447Z,1.60
2022-08-22T04:11:07.685Z,2.00
2022-08-22T04:13:53.227Z,2.28
2022-08-22T04:16:38.833Z,2.33
2022-08-22T04:19:32.178Z,2.13
2022-08-22T04:22:29.575Z,1.85
2022-08-22T04:25:01.113Z,1.88
2022-08-22T04:27:49.745Z,2.00
2022-08-22T04:30:16.274Z,1.90
2022-08-22T04:32:53.223Z,1.80
2022-08-22T04:35:39.797Z,2.05
2022-08-22T04:38:30.797Z,1.58
2022-08-22T04:41:12.675Z,1.75
2022-08-22T04:43:49.860Z,1.88
2022-08-22T04:46:23.243Z,1.92
2022-08-22T04:49:00.143Z,2.20
2022-08-22T04:51:36.933Z,1.70
2022-08-22T04:54:41.212Z,1.80
2022-08-22T04:57:39.471Z,1.90
2022-08-22T05:00:10.358Z,1.60
2022-08-22T05:02:39.967Z,1.80
2022-08-22T05:05:13.803Z,1.60
2022-08-22T05:07:46.260Z,1.80
2022-08-22T05:10:19.993Z,3.03
2022-08-22T05:12:55.314Z,2.38
2022-08-22T05:15:30.982Z,1.98
2022-08-22T05:18:09.396Z,2.20
2022-08-22T05:20:37.851Z,2.50
2022-08-22T05:23:42.446Z,2.67
2022-08-22T05:26:11.042Z,2.10
2022-08-22T05:28:41.648Z,2.10
2022-08-22T05:31:11.076Z,2.50
2022-08-22T05:33:49.048Z,1.80
2022-08-22T05:36:21.093Z,2.00
2022-08-22T05:38:56.282Z,2.20
2022-08-22T05:41:26.106Z,1.80
2022-08-22T05:43:53.811Z,2.10
2022-08-22T05:46:39.989Z,2.63
2022-08-22T05:49:16.356Z,2.22
2022-08-22T05:51:58.156Z,2.78
2022-08-22T05:54:33.739Z,2.17
2022-08-22T05:57:29.056Z,2.22
2022-08-22T06:00:12.911Z,2.45
2022-08-22T06:02:48.690Z,2.45
2022-08-22T06:05:22.193Z,2.20
2022-08-22T06:07:50.570Z,1.80
2022-08-22T06:10:17.426Z,2.30
2022-08-22T06:12:59.507Z,2.40
2022-08-22T06:15:53.056Z,1.90
2022-08-22T06:18:24.745Z,1.65
2022-08-22T06:23:33.400Z,2.00
2022-08-22T06:26:01.578Z,2.72
2022-08-22T06:28:34.003Z,2.10
2022-08-22T06:31:02.528Z,2.33
2022-08-22T06:33:31.355Z,1.67
2022-08-22T06:36:20.642Z,1.77
2022-08-22T06:38:50.995Z,1.85
2022-08-22T06:41:18.105Z,1.95
2022-08-22T06:43:44.850Z,1.98
2022-08-22T06:46:13.491Z,1.77
2022-08-22T06:48:41.373Z,1.60
2022-08-22T06:51:09.528Z,1.50
2022-08-22T06:53:47.769Z,1.20
2022-08-22T06:56:21.109Z,1.90
2022-08-22T06:58:49.105Z,2.28
2022-08-22T07:01:24.143Z,1.77
2022-08-22T07:03:55.665Z,1.80
2022-08-22T07:06:30.991Z,1.92
2022-08-22T07:08:58.314Z,1.50
2022-08-22T07:11:34.858Z,2.05
2022-08-22T07:14:03.329Z,1.42
2022-08-22T07:16:52.187Z,1.50
2022-08-22T07:19:39.917Z,1.40
2022-08-22T07:22:33.216Z,1.60
2022-08-22T07:25:06.342Z,1.42
2022-08-22T07:27:54.503Z,1.95
2022-08-22T07:30:27.931Z,1.40
2022-08-22T07:33:25.639Z,1.50
2022-08-22T07:35:59.746Z,1.20
2022-08-22T07:38:42.810Z,2.00
2022-08-22T07:41:22.875Z,1.23
2022-08-22T07:43:51.773Z,1.10
2022-08-22T07:46:29.033Z,1.08
2022-08-22T07:49:19.975Z,1.15
2022-08-22T07:51:50.703Z,1.10
2022-08-22T07:54:27.057Z,0.70
2022-08-22T07:57:01.725Z,1.00
2022-08-22T07:59:29.721Z,0.95
2022-08-22T08:01:58.824Z,1.13
2022-08-22T08:04:29.763Z,0.80
2022-08-22T08:06:59.061Z,0.93
2022-08-22T08:09:29.254Z,1.00
2022-08-22T08:11:56.258Z,0.77
2022-08-22T08:14:23.768Z,0.57
2022-08-22T08:17:30.125Z,0.80
2022-08-22T08:20:00.494Z,1.08
2022-08-22T08:22:27.816Z,0.70
2022-08-22T08:24:56.882Z,0.70
2022-08-22T08:27:44.494Z,0.95
2022-08-22T08:30:24.589Z,0.85
2022-08-22T08:32:57.568Z,1.10
2022-08-22T08:36:01.824Z,1.25
2022-08-22T08:38:33.503Z,1.02
2022-08-22T08:41:28.434Z,1.08
2022-08-22T08:44:17.079Z,1.30
2022-08-22T08:47:20.695Z,1.20
2022-08-22T08:50:04.924Z,1.13
2022-08-22T08:52:52.901Z,1.45
2022-08-22T08:55:51.230Z,1.05
2022-08-22T08:58:24.120Z,1.50
2022-08-22T09:01:07.339Z,1.67
2022-08-22T09:03:56.259Z,1.15
2022-08-22T09:06:52.674Z,1.70
2022-08-22T09:09:45.039Z,1.73
2022-08-22T09:12:25.384Z,1.60
2022-08-22T09:15:11.818Z,1.43
2022-08-22T09:18:00.150Z,2.05
2022-08-22T09:20:48.205Z,1.38
2022-08-22T09:23:48.935Z,2.38
2022-08-22T09:26:40.267Z,1.67
2022-08-22T09:29:51.447Z,1.80
2022-08-22T09:32:34.444Z,1.52
2022-08-22T09:35:19.407Z,1.75
2022-08-22T09:38:10.258Z,1.77
2022-08-22T09:40:48.090Z,1.45
2022-08-22T09:43:24.038Z,1.98
2022-08-22T09:46:22.003Z,1.80
2022-08-22T09:49:05.619Z,1.90
2022-08-22T09:51:46.872Z,1.90
2022-08-22T09:54:34.683Z,1.48
2022-08-22T09:57:13.914Z,1.40
2022-08-22T09:59:46.731Z,1.48
2022-08-22T10:02:28.533Z,1.40
2022-08-22T10:05:04.138Z,1.52
2022-08-22T10:07:33.815Z,1.30
2022-08-22T10:10:21.374Z,1.33
2022-08-22T10:13:00.937Z,1.75
2022-08-22T10:15:39.523Z,1.90
2022-08-22T10:19:03.666Z,1.90
2022-08-22T10:21:46.983Z,1.83
2022-08-22T10:24:25.484Z,1.27
2022-08-22T10:26:55.051Z,1.80
2022-08-22T10:29:43.474Z,1.70
2022-08-22T10:32:20.574Z,1.30
2022-08-22T10:34:57.591Z,1.40
2022-08-22T10:40:30.380Z,1.20
2022-08-22T10:43:02.445Z,1.70
2022-08-22T10:45:44.772Z,1.80
2022-08-22T10:48:20.785Z,1.23
2022-08-22T10:50:50.989Z,1.60
2022-08-22T10:53:30.598Z,1.40
2022-08-22T10:56:27.384Z,1.73
2022-08-22T10:59:12.955Z,1.40
2022-08-22T11:01:47.223Z,1.45
2022-08-22T11:04:33.170Z,1.20
2022-08-22T11:07:17.177Z,1.58
2022-08-22T11:09:55.319Z,1.50
2022-08-22T11:12:35.057Z,1.63
